Terminal Aerodrome Forecast
Issued by NWS

Home | Current Version | Previous Version | Text Only | Print | Product List | Glossary On
Versions: 1 2 3 4 5 6 7 8 9 10 11 12 13 14 15 16
000
FTPA31 PHFO 231126
TAFHMK
TAF
PHMK 231126Z 2312/2412 04010G18KT P6SM VCSH SCT025 BKN045
     FM232000 04012G20KT P6SM VCSH SCT025 SCT045
     FM240500 04008KT P6SM VCSH SCT025 BKN045=

USA.gov is the U.S. government's official web portal to all federal, state and local government web resources and services.